Time;durP1;ratioP1;P1;durP2;ratioP2;P2;SDS_P1;SDS_P2;PMS_P1;PMS_P2;Temp;Humidity;BMP_temperature;BMP_pressure;BME280_temperature;BME280_humidity;BME280_pressure;Samples;Min_cycle;Max_cycle;Signal;HPM_P1;HPM_P2
2023/05/27 00:00:58;;;;;;;67.88;51.00;;;16.30;75.70;;;;;;4895597;28;88160;-54
2023/05/27 00:03:24;;;;;;;65.28;50.92;;;16.20;76.00;;;;;;4891536;28;86904;-57
2023/05/27 00:05:49;;;;;;;68.97;50.65;;;16.20;76.80;;;;;;4903775;28;86500;-58
2023/05/27 00:08:15;;;;;;;68.60;51.00;;;16.20;77.30;;;;;;4904946;28;87672;-57
2023/05/27 00:10:41;;;;;;;66.80;51.08;;;16.20;76.40;;;;;;4907818;28;86337;-56
2023/05/27 00:13:07;;;;;;;70.65;51.63;;;16.10;77.90;;;;;;4902035;28;85582;-54
2023/05/27 00:15:32;;;;;;;70.63;51.08;;;16.10;78.10;;;;;;4904011;28;85933;-57
2023/05/27 00:18:01;;;;;;;67.45;51.00;;;16.10;76.40;;;;;;4903406;28;85093;-56
2023/05/27 00:20:29;;;;;;;65.25;50.92;;;16.10;76.60;;;;;;4919429;28;87205;-57
2023/05/27 00:22:56;;;;;;;66.57;51.13;;;16.00;77.10;;;;;;4901505;28;85547;-54
2023/05/27 00:25:22;;;;;;;65.47;51.22;;;16.00;77.30;;;;;;4903733;28;85152;-57
2023/05/27 00:27:49;;;;;;;67.85;51.13;;;16.00;76.80;;;;;;4897127;28;89734;-54
2023/05/27 00:30:15;;;;;;;67.57;51.15;;;16.00;77.90;;;;;;4895240;28;85134;-56
2023/05/27 00:32:41;;;;;;;67.30;51.58;;;16.00;77.10;;;;;;4900627;28;85985;-50
2023/05/27 00:35:07;;;;;;;64.88;50.67;;;15.90;77.90;;;;;;4900528;28;85163;-56
2023/05/27 00:37:33;;;;;;;66.80;50.95;;;15.90;77.40;;;;;;4902261;28;86198;-56
2023/05/27 00:39:59;;;;;;;64.95;51.08;;;15.90;77.80;;;;;;4904064;28;85446;-57
2023/05/27 00:42:25;;;;;;;68.38;50.92;;;15.80;77.10;;;;;;4901427;28;85664;-54
2023/05/27 00:44:51;;;;;;;65.95;50.38;;;15.70;77.00;;;;;;4902071;28;86056;-52
2023/05/27 00:47:17;;;;;;;66.55;50.90;;;15.70;77.40;;;;;;4903327;28;85365;-56
2023/05/27 00:49:45;;;;;;;66.80;50.65;;;15.70;77.20;;;;;;4903548;28;85688;-58
2023/05/27 00:52:13;;;;;;;65.22;50.63;;;15.70;78.50;;;;;;4905835;28;85327;-57
2023/05/27 00:54:40;;;;;;;65.53;50.45;;;15.70;77.20;;;;;;4904883;28;85599;-56
2023/05/27 00:57:06;;;;;;;65.70;50.90;;;15.70;77.70;;;;;;4901764;28;86738;-57
2023/05/27 00:59:31;;;;;;;65.13;50.35;;;15.60;78.90;;;;;;4902101;28;85505;-55
2023/05/27 01:01:57;;;;;;;64.57;50.50;;;15.60;78.40;;;;;;4902216;28;86610;-49
2023/05/27 01:04:25;;;;;;;68.32;51.25;;;15.60;77.90;;;;;;4905669;28;85476;-54
2023/05/27 01:07:18;;;;;;;65.80;51.08;;;15.60;79.10;;;;;;4907092;28;84983;-55
2023/05/27 01:09:55;;;;;;;63.33;50.53;;;15.50;79.60;;;;;;4905612;28;85794;-56
2023/05/27 01:12:35;;;;;;;65.55;50.55;;;15.50;77.80;;;;;;4904600;28;85111;-54
2023/05/27 01:15:04;;;;;;;66.90;50.95;;;15.50;79.80;;;;;;4902340;28;86627;-58
2023/05/27 01:17:31;;;;;;;64.07;50.58;;;15.50;78.90;;;;;;4908085;28;86208;-56
2023/05/27 01:20:00;;;;;;;65.30;50.20;;;15.50;78.10;;;;;;4904976;28;85726;-57
2023/05/27 01:22:28;;;;;;;65.05;50.40;;;15.50;79.90;;;;;;4903343;28;86155;-58
2023/05/27 01:24:53;;;;;;;67.82;51.03;;;15.50;80.10;;;;;;4899827;28;86365;-50
2023/05/27 01:27:20;;;;;;;66.78;50.13;;;15.40;78.10;;;;;;4906606;28;85133;-49
2023/05/27 01:29:46;;;;;;;65.97;50.78;;;15.40;78.10;;;;;;4908948;28;86438;-49
2023/05/27 01:32:24;;;;;;;66.75;50.50;;;15.30;78.30;;;;;;4910533;28;85155;-47
2023/05/27 01:35:11;;;;;;;65.85;50.28;;;15.30;78.70;;;;;;4907982;28;86248;-48
2023/05/27 01:37:40;;;;;;;64.10;50.25;;;15.30;78.60;;;;;;4907574;28;85184;-45
2023/05/27 01:40:08;;;;;;;65.97;50.53;;;15.30;79.40;;;;;;4908366;28;85229;-47
2023/05/27 01:42:38;;;;;;;68.00;50.25;;;15.30;79.90;;;;;;4911670;28;85700;-45
2023/05/27 01:45:06;;;;;;;63.55;50.15;;;15.30;79.90;;;;;;4910505;28;85543;-48
2023/05/27 01:47:32;;;;;;;65.78;50.20;;;15.20;78.00;;;;;;4909500;28;85815;-50
2023/05/27 01:49:58;;;;;;;63.95;49.85;;;15.20;79.50;;;;;;4908807;28;86557;-44
2023/05/27 01:52:24;;;;;;;65.78;50.45;;;15.20;79.60;;;;;;4909215;28;85075;-47
2023/05/27 01:54:49;;;;;;;62.97;49.80;;;15.10;80.20;;;;;;4909295;28;84982;-47
2023/05/27 01:57:17;;;;;;;63.30;50.03;;;15.20;80.80;;;;;;4910005;28;85765;-44
2023/05/27 01:59:42;;;;;;;64.28;49.95;;;15.20;79.10;;;;;;4904458;28;87035;-47
2023/05/27 02:02:08;;;;;;;64.68;50.25;;;15.10;78.80;;;;;;4902643;28;85217;-46
2023/05/27 02:04:34;;;;;;;64.40;49.78;;;15.10;78.90;;;;;;4906542;28;86329;-44
2023/05/27 02:07:00;;;;;;;64.35;49.88;;;15.10;80.10;;;;;;4904384;28;85108;-47
2023/05/27 02:09:25;;;;;;;64.03;50.10;;;15.10;81.00;;;;;;4906228;28;85346;-45
2023/05/27 02:11:51;;;;;;;62.33;49.80;;;15.10;80.40;;;;;;4900538;28;85989;-49
2023/05/27 02:14:17;;;;;;;63.45;50.20;;;15.00;79.90;;;;;;4896145;28;86239;-47
2023/05/27 02:16:43;;;;;;;69.88;51.30;;;15.00;83.20;;;;;;4895774;28;86499;-45
2023/05/27 02:19:09;;;;;;;65.30;50.45;;;15.10;83.50;;;;;;4894870;28;90540;-47
2023/05/27 02:21:35;;;;;;;68.05;51.10;;;15.10;80.20;;;;;;4899722;28;89299;-48
2023/05/27 02:24:01;;;;;;;65.93;50.47;;;15.10;83.00;;;;;;4901608;28;91052;-47
2023/05/27 02:26:28;;;;;;;65.28;50.38;;;15.00;79.40;;;;;;4902112;28;85231;-46
2023/05/27 02:28:53;;;;;;;64.28;50.30;;;15.00;80.10;;;;;;4897325;28;85685;-47
2023/05/27 02:31:19;;;;;;;67.70;50.90;;;14.90;79.30;;;;;;4894026;28;85259;-47
2023/05/27 02:33:46;;;;;;;62.80;50.47;;;14.90;84.40;;;;;;4897001;28;85648;-46
2023/05/27 02:36:12;;;;;;;64.30;50.28;;;14.90;81.20;;;;;;4905915;28;85116;-45
2023/05/27 02:38:38;;;;;;;69.18;50.38;;;14.90;81.00;;;;;;4908435;28;85207;-47
2023/05/27 02:41:04;;;;;;;64.63;50.63;;;14.90;81.70;;;;;;4907471;28;85161;-45
2023/05/27 02:43:29;;;;;;;62.53;49.97;;;14.90;81.80;;;;;;4905292;28;85728;-44
2023/05/27 02:45:55;;;;;;;65.95;51.25;;;14.90;80.30;;;;;;4905106;28;86761;-47
2023/05/27 02:48:21;;;;;;;68.05;50.55;;;14.90;80.90;;;;;;4907320;28;86599;-46
2023/05/27 02:50:47;;;;;;;67.05;50.47;;;14.80;81.30;;;;;;4904143;28;86541;-48
2023/05/27 02:53:12;;;;;;;65.45;50.15;;;14.80;80.90;;;;;;4909793;28;85684;-49
2023/05/27 02:55:38;;;;;;;68.03;50.15;;;14.70;80.10;;;;;;4905290;28;85425;-46
2023/05/27 02:58:04;;;;;;;64.85;49.92;;;14.70;80.00;;;;;;4907264;28;85799;-50
2023/05/27 03:00:31;;;;;;;66.57;50.55;;;14.60;80.10;;;;;;4905053;28;86002;-49
2023/05/27 03:02:57;;;;;;;63.00;50.00;;;14.60;80.70;;;;;;4909352;28;87289;-45
2023/05/27 03:05:22;;;;;;;67.53;50.38;;;14.60;80.10;;;;;;4908745;28;86419;-46
2023/05/27 03:07:48;;;;;;;65.78;50.42;;;14.60;80.80;;;;;;4900488;28;85633;-46
2023/05/27 03:10:14;;;;;;;64.07;49.83;;;14.60;79.90;;;;;;4907053;28;85583;-47
2023/05/27 03:12:39;;;;;;;63.85;50.08;;;14.60;80.00;;;;;;4908226;28;85356;-47
2023/05/27 03:15:06;;;;;;;64.72;50.38;;;14.50;80.20;;;;;;4905479;28;85218;-46
2023/05/27 03:17:35;;;;;;;64.78;50.47;;;14.50;80.10;;;;;;4906066;28;85877;-46
2023/05/27 03:20:01;;;;;;;65.65;50.08;;;14.50;81.50;;;;;;4906644;28;85577;-46
2023/05/27 03:22:27;;;;;;;65.50;50.47;;;14.50;80.60;;;;;;4907351;28;85164;-44
2023/05/27 03:24:53;;;;;;;64.57;49.97;;;14.50;80.90;;;;;;4907748;28;87665;-54
2023/05/27 03:27:20;;;;;;;63.33;49.83;;;14.50;81.50;;;;;;4906100;28;84874;-55
2023/05/27 03:29:46;;;;;;;63.67;49.80;;;14.50;80.90;;;;;;4909403;28;85400;-53
2023/05/27 03:32:12;;;;;;;64.40;50.05;;;14.50;80.80;;;;;;4905271;28;85469;-55
2023/05/27 03:34:37;;;;;;;61.20;49.65;;;14.50;81.40;;;;;;4904589;28;85199;-46
2023/05/27 03:37:03;;;;;;;64.80;50.17;;;14.50;80.90;;;;;;4904952;28;85572;-45
2023/05/27 03:39:29;;;;;;;62.92;49.63;;;14.40;80.90;;;;;;4905156;28;85246;-45
2023/05/27 03:41:55;;;;;;;64.10;49.90;;;14.40;80.40;;;;;;4907998;28;85093;-45
2023/05/27 03:44:20;;;;;;;63.10;50.00;;;14.40;81.30;;;;;;4907181;28;85182;-56
2023/05/27 03:46:46;;;;;;;67.15;50.70;;;14.40;80.60;;;;;;4905365;28;86482;-45
2023/05/27 03:49:12;;;;;;;62.95;50.30;;;14.30;80.60;;;;;;4904198;28;85432;-45
2023/05/27 03:51:37;;;;;;;63.13;50.10;;;14.30;80.60;;;;;;4903174;28;85096;-45
2023/05/27 03:54:03;;;;;;;62.03;49.95;;;14.20;80.10;;;;;;4905054;28;85038;-44
2023/05/27 03:56:29;;;;;;;65.10;50.00;;;14.20;80.10;;;;;;4907226;28;85921;-47
2023/05/27 03:58:56;;;;;;;67.13;50.03;;;14.20;80.50;;;;;;4904414;28;85579;-45
2023/05/27 04:01:21;;;;;;;64.07;49.70;;;14.10;80.20;;;;;;4908122;28;85472;-46
2023/05/27 04:03:48;;;;;;;62.10;50.05;;;14.10;80.30;;;;;;4908999;28;85607;-46
2023/05/27 04:06:13;;;;;;;64.20;49.78;;;14.10;80.60;;;;;;4904181;28;86413;-44
2023/05/27 04:08:40;;;;;;;65.93;50.28;;;14.20;80.50;;;;;;4908316;28;85451;-49
2023/05/27 04:11:10;;;;;;;62.08;49.78;;;14.20;80.30;;;;;;4906113;28;85864;-45
2023/05/27 04:13:35;;;;;;;62.95;49.97;;;14.20;81.30;;;;;;4908876;28;85802;-48
2023/05/27 04:16:01;;;;;;;66.65;50.17;;;14.20;80.30;;;;;;4906359;28;86370;-50
2023/05/27 04:18:27;;;;;;;65.85;49.72;;;14.20;79.40;;;;;;4906101;28;85396;-49
2023/05/27 04:20:52;;;;;;;62.97;49.78;;;14.20;81.40;;;;;;4911801;28;85439;-45
2023/05/27 04:23:18;;;;;;;62.90;49.67;;;14.20;80.90;;;;;;4906250;28;85633;-48
2023/05/27 04:25:44;;;;;;;66.13;49.65;;;14.20;80.60;;;;;;4905050;28;85541;-45
2023/05/27 04:28:10;;;;;;;62.03;49.88;;;14.20;79.50;;;;;;4898244;28;85228;-46
2023/05/27 04:30:36;;;;;;;63.83;50.00;;;14.20;80.80;;;;;;4909507;28;85563;-46
2023/05/27 04:33:04;;;;;;;62.38;49.42;;;14.20;79.20;;;;;;4902170;28;85064;-46
2023/05/27 04:35:33;;;;;;;66.78;50.35;;;14.20;80.20;;;;;;4905311;28;85041;-44
2023/05/27 04:38:00;;;;;;;65.47;49.92;;;14.20;80.00;;;;;;4909158;28;85296;-48
2023/05/27 04:40:28;;;;;;;61.72;49.63;;;14.20;80.80;;;;;;4906962;28;85614;-47
2023/05/27 04:42:55;;;;;;;64.32;50.33;;;14.20;80.30;;;;;;4906813;28;86305;-45
2023/05/27 04:45:20;;;;;;;61.35;49.63;;;14.20;79.40;;;;;;4907454;28;85722;-46
2023/05/27 04:47:46;;;;;;;62.72;49.85;;;14.20;81.20;;;;;;4908980;28;87011;-46
2023/05/27 04:50:13;;;;;;;63.88;49.83;;;14.20;81.10;;;;;;4904877;28;85467;-46
2023/05/27 04:52:40;;;;;;;64.45;49.53;;;14.20;80.40;;;;;;4907942;28;89575;-47
2023/05/27 04:55:08;;;;;;;64.57;49.85;;;14.30;79.80;;;;;;4907804;28;90235;-55
2023/05/27 04:57:35;;;;;;;63.28;49.50;;;14.30;79.40;;;;;;4905217;28;89692;-57
2023/05/27 05:02:39;;;;;;;64.88;49.42;;;14.30;80.20;;;;;;4905540;28;90498;-53
2023/05/27 05:05:06;;;;;;;63.65;49.58;;;14.30;81.10;;;;;;4907638;28;90988;-54
2023/05/27 05:07:41;;;;;;;64.72;49.90;;;14.30;79.50;;;;;;4904790;28;90069;-53
2023/05/27 05:10:08;;;;;;;64.32;49.75;;;14.30;78.50;;;;;;4904865;28;90830;-56
2023/05/27 05:12:35;;;;;;;62.67;49.33;;;14.30;78.90;;;;;;4906447;28;89419;-58
2023/05/27 05:15:01;;;;;;;63.05;49.60;;;14.40;80.10;;;;;;4904146;28;90739;-57
2023/05/27 05:17:26;;;;;;;63.67;50.10;;;14.40;79.50;;;;;;4903653;28;89756;-55
2023/05/27 05:19:52;;;;;;;63.10;49.58;;;14.40;78.80;;;;;;4909340;28;89220;-53
2023/05/27 05:22:19;;;;;;;64.80;50.00;;;14.40;78.10;;;;;;4910154;28;89510;-56
2023/05/27 05:24:46;;;;;;;60.13;49.15;;;14.40;79.10;;;;;;4901743;28;90359;-57
2023/05/27 05:27:12;;;;;;;62.42;49.55;;;14.50;78.10;;;;;;4907196;28;90829;-55
2023/05/27 05:29:38;;;;;;;62.10;49.80;;;14.40;79.00;;;;;;4905286;28;90232;-54
2023/05/27 05:32:04;;;;;;;62.88;49.58;;;14.50;79.10;;;;;;4899208;28;90123;-56
2023/05/27 05:34:30;;;;;;;63.05;49.83;;;14.60;77.60;;;;;;4900083;28;91194;-58
2023/05/27 05:36:56;;;;;;;63.08;49.90;;;14.60;78.50;;;;;;4902868;28;90191;-57
2023/05/27 05:39:22;;;;;;;62.97;49.28;;;14.60;78.30;;;;;;4908220;28;90629;-57
2023/05/27 05:41:48;;;;;;;63.72;49.58;;;14.60;78.20;;;;;;4904331;28;90142;-50
2023/05/27 05:44:14;;;;;;;64.03;49.97;;;14.60;78.30;;;;;;4905795;28;89850;-57
2023/05/27 05:46:40;;;;;;;62.75;49.67;;;14.70;79.10;;;;;;4904161;28;90720;-58
2023/05/27 05:49:05;;;;;;;63.85;49.70;;;14.70;77.50;;;;;;4903138;28;89490;-55
2023/05/27 05:51:31;;;;;;;62.83;49.85;;;14.70;77.50;;;;;;4906259;28;91708;-49
2023/05/27 05:53:57;;;;;;;65.22;50.25;;;14.80;78.00;;;;;;4905343;28;90686;-53
2023/05/27 05:56:23;;;;;;;63.30;49.92;;;14.80;76.50;;;;;;4907211;28;90218;-57
2023/05/27 05:58:49;;;;;;;62.38;49.60;;;14.80;77.30;;;;;;4905570;28;89788;-58
2023/05/27 06:01:15;;;;;;;63.05;49.42;;;14.80;78.10;;;;;;4901762;28;90451;-57
2023/05/27 06:03:41;;;;;;;65.57;50.20;;;14.80;77.90;;;;;;4905460;28;90470;-51
2023/05/27 06:06:07;;;;;;;64.13;50.05;;;14.80;76.00;;;;;;4907537;28;90724;-57
2023/05/27 06:08:33;;;;;;;60.13;48.92;;;14.80;76.60;;;;;;4907558;28;89724;-57
2023/05/27 06:10:59;;;;;;;62.53;49.78;;;14.90;79.10;;;;;;4904645;28;90368;-56
2023/05/27 06:13:25;;;;;;;62.08;50.28;;;14.90;76.10;;;;;;4906060;28;90451;-56
2023/05/27 06:15:50;;;;;;;63.20;50.00;;;15.00;76.10;;;;;;4909774;28;90719;-55
2023/05/27 06:18:16;;;;;;;65.65;50.22;;;15.00;76.10;;;;;;4909560;28;89831;-50
2023/05/27 06:20:42;;;;;;;66.60;50.35;;;15.00;75.60;;;;;;4910633;28;90239;-56
2023/05/27 06:23:07;;;;;;;63.85;50.05;;;15.00;75.30;;;;;;4903392;28;89817;-58
2023/05/27 06:25:33;;;;;;;65.13;50.33;;;15.00;75.60;;;;;;4903449;28;89345;-56
2023/05/27 06:27:59;;;;;;;62.92;49.72;;;15.00;75.60;;;;;;4906286;28;90344;-57
2023/05/27 06:30:25;;;;;;;63.65;49.65;;;15.10;76.90;;;;;;4904055;28;90040;-57
2023/05/27 06:32:51;;;;;;;63.60;49.80;;;15.20;76.30;;;;;;4907796;28;89864;-57
2023/05/27 06:35:17;;;;;;;63.42;50.03;;;15.20;75.10;;;;;;4903509;28;89517;-53
2023/05/27 06:37:43;;;;;;;63.35;49.78;;;15.20;75.90;;;;;;4903113;28;91686;-56
2023/05/27 06:40:10;;;;;;;62.05;50.00;;;15.30;76.30;;;;;;4906466;28;90607;-58
2023/05/27 06:42:36;;;;;;;61.58;49.58;;;15.30;75.10;;;;;;4903665;28;90251;-57
2023/05/27 06:45:03;;;;;;;60.28;49.63;;;15.30;76.10;;;;;;4906625;28;89487;-57
2023/05/27 06:47:28;;;;;;;61.38;49.38;;;15.40;75.90;;;;;;4910195;28;89803;-54
2023/05/27 06:49:54;;;;;;;64.43;50.25;;;15.40;75.40;;;;;;4901448;28;89594;-57
2023/05/27 06:52:21;;;;;;;65.45;50.10;;;15.40;75.80;;;;;;4907292;28;90040;-56
2023/05/27 06:54:47;;;;;;;62.60;49.78;;;15.40;75.60;;;;;;4885889;28;89613;-56
2023/05/27 06:57:13;;;;;;;61.88;49.75;;;15.50;75.80;;;;;;4903776;28;88834;-53
2023/05/27 06:59:40;;;;;;;61.88;50.03;;;15.50;76.20;;;;;;4903996;28;90073;-56
2023/05/27 07:02:06;;;;;;;66.65;50.70;;;15.60;75.00;;;;;;4900496;28;89740;-57
2023/05/27 07:04:33;;;;;;;62.03;49.75;;;15.60;73.80;;;;;;4903236;28;90893;-57
2023/05/27 07:06:58;;;;;;;64.53;50.45;;;15.60;74.70;;;;;;4908330;28;90704;-57
2023/05/27 07:09:24;;;;;;;62.42;49.78;;;15.60;74.60;;;;;;4905901;28;89706;-57
2023/05/27 07:11:50;;;;;;;64.50;50.45;;;15.70;74.10;;;;;;4904382;28;91838;-56
2023/05/27 07:14:15;;;;;;;65.85;50.42;;;15.70;73.50;;;;;;4908341;28;89426;-58
2023/05/27 07:16:41;;;;;;;66.50;51.20;;;15.70;74.20;;;;;;4900544;28;90140;-53
2023/05/27 07:19:07;;;;;;;63.55;50.67;;;15.80;73.40;;;;;;4901760;28;90440;-58
2023/05/27 07:21:33;;;;;;;63.30;50.17;;;15.70;73.50;;;;;;4906735;28;90416;-49
2023/05/27 07:24:03;;;;;;;61.47;49.63;;;15.80;73.40;;;;;;4911681;28;90065;-54
2023/05/27 07:26:30;;;;;;;60.95;49.45;;;15.90;74.50;;;;;;4903474;28;89706;-54
2023/05/27 07:28:58;;;;;;;64.35;50.03;;;15.90;74.70;;;;;;4906063;28;91002;-57
2023/05/27 07:31:25;;;;;;;61.08;49.40;;;15.90;74.30;;;;;;4902231;28;89746;-58
2023/05/27 07:33:51;;;;;;;62.55;49.72;;;16.00;73.90;;;;;;4905944;28;89502;-51
2023/05/27 07:36:17;;;;;;;62.72;49.53;;;16.10;74.30;;;;;;4906582;28;89683;-56
2023/05/27 07:38:42;;;;;;;62.60;49.80;;;16.10;74.00;;;;;;4906259;28;89488;-56
2023/05/27 07:41:08;;;;;;;63.53;50.42;;;16.10;73.20;;;;;;4902665;28;90009;-59
2023/05/27 07:43:34;;;;;;;63.28;50.22;;;16.20;73.40;;;;;;4908932;28;91448;-57
2023/05/27 07:45:59;;;;;;;63.08;49.63;;;16.20;74.10;;;;;;4903409;28;88686;-55
2023/05/27 07:48:25;;;;;;;62.75;50.08;;;16.30;73.30;;;;;;4902061;28;89882;-58
2023/05/27 07:50:51;;;;;;;66.60;50.30;;;16.30;72.30;;;;;;4901698;28;89894;-56
2023/05/27 07:53:16;;;;;;;64.88;50.25;;;16.30;72.50;;;;;;4903080;28;91475;-55
2023/05/27 07:55:42;;;;;;;61.88;49.55;;;16.40;72.90;;;;;;4903155;28;90434;-48
2023/05/27 07:58:08;;;;;;;64.63;50.63;;;16.40;72.90;;;;;;4902801;28;90122;-49
2023/05/27 08:00:33;;;;;;;62.65;50.05;;;16.40;72.80;;;;;;4907688;28;89928;-45
2023/05/27 08:02:59;;;;;;;62.05;50.00;;;16.50;72.90;;;;;;4900678;28;89982;-45
2023/05/27 08:05:25;;;;;;;62.45;49.72;;;16.50;73.00;;;;;;4900017;28;89853;-45
2023/05/27 08:07:50;;;;;;;63.22;50.17;;;16.60;72.70;;;;;;4905401;28;90096;-46
2023/05/27 08:10:16;;;;;;;63.42;50.30;;;16.70;72.60;;;;;;4900714;28;89300;-47
2023/05/27 08:12:42;;;;;;;63.20;50.17;;;16.70;71.80;;;;;;4902939;28;89540;-46
2023/05/27 08:15:08;;;;;;;62.28;49.88;;;16.70;72.30;;;;;;4908290;28;89666;-44
2023/05/27 08:17:33;;;;;;;63.28;49.78;;;16.70;71.80;;;;;;4901444;28;90767;-45
2023/05/27 08:19:59;;;;;;;61.95;50.10;;;16.70;72.20;;;;;;4900702;28;91225;-44
2023/05/27 08:22:25;;;;;;;63.15;49.63;;;16.70;72.30;;;;;;4901168;28;91144;-46
2023/05/27 08:24:51;;;;;;;64.88;50.33;;;16.80;72.00;;;;;;4904736;28;89787;-55
2023/05/27 08:27:17;;;;;;;65.50;50.85;;;16.80;71.70;;;;;;4901764;28;89871;-52
2023/05/27 08:29:43;;;;;;;62.35;49.85;;;16.80;71.10;;;;;;4900851;28;90112;-58
2023/05/27 08:32:09;;;;;;;63.45;50.13;;;16.90;71.50;;;;;;4901550;28;90060;-53
2023/05/27 08:34:35;;;;;;;63.90;50.65;;;17.00;71.30;;;;;;4901075;28;89245;-56
2023/05/27 08:37:02;;;;;;;62.35;49.67;;;17.00;70.90;;;;;;4902052;28;90356;-57
2023/05/27 08:39:28;;;;;;;62.55;49.65;;;17.00;71.00;;;;;;4900645;28;91043;-59
2023/05/27 08:41:54;;;;;;;62.50;49.90;;;17.10;70.90;;;;;;4901661;28;91071;-56
2023/05/27 08:44:23;;;;;;;65.10;50.60;;;17.10;70.90;;;;;;4898336;28;90374;-58
2023/05/27 08:46:50;;;;;;;64.75;50.10;;;17.10;70.40;;;;;;4899054;28;89615;-57
2023/05/27 08:49:16;;;;;;;63.45;50.28;;;17.20;70.60;;;;;;4902028;28;89592;-58
2023/05/27 08:51:42;;;;;;;62.72;49.75;;;17.20;70.30;;;;;;4901698;28;89377;-55
2023/05/27 08:54:09;;;;;;;61.88;50.00;;;17.20;71.20;;;;;;4902004;28;91912;-56
2023/05/27 08:56:36;;;;;;;64.47;50.95;;;17.20;70.50;;;;;;4904115;28;89909;-54
2023/05/27 08:59:01;;;;;;;64.13;50.58;;;17.20;70.20;;;;;;4902032;28;89086;-58
2023/05/27 09:01:28;;;;;;;64.47;50.20;;;17.30;70.10;;;;;;4898924;28;90094;-58
2023/05/27 09:03:56;;;;;;;62.50;50.25;;;17.30;70.30;;;;;;4906540;28;89425;-56
2023/05/27 09:06:22;;;;;;;62.50;50.05;;;17.30;70.00;;;;;;4901480;28;91004;-56
2023/05/27 09:08:48;;;;;;;64.63;50.38;;;17.40;70.20;;;;;;4898684;28;89899;-58
2023/05/27 09:11:28;;;;;;;63.25;50.35;;;17.40;70.10;;;;;;4899603;28;90288;-59
2023/05/27 09:13:58;;;;;;;62.07;50.10;;;17.40;70.10;;;;;;4900830;28;89913;-58
2023/05/27 09:16:24;;;;;;;64.35;50.30;;;17.40;70.10;;;;;;4898922;28;90257;-55
2023/05/27 09:18:50;;;;;;;64.05;50.17;;;17.40;70.00;;;;;;4898083;28;90692;-54
2023/05/27 09:21:16;;;;;;;62.78;50.25;;;17.40;70.30;;;;;;4905709;28;90254;-55
2023/05/27 09:23:41;;;;;;;65.20;50.53;;;17.50;70.00;;;;;;4906128;28;90492;-57
2023/05/27 09:26:11;;;;;;;63.90;50.45;;;17.50;70.00;;;;;;4904228;28;89109;-59
2023/05/27 09:28:38;;;;;;;65.00;50.65;;;17.50;70.20;;;;;;4912080;28;90741;-55
2023/05/27 09:31:06;;;;;;;64.80;50.50;;;17.60;69.70;;;;;;4908378;28;90976;-54
2023/05/27 09:33:37;;;;;;;64.35;50.40;;;17.60;69.90;;;;;;4909525;28;89445;-54
2023/05/27 09:36:04;;;;;;;64.03;50.33;;;17.60;69.90;;;;;;4900404;28;90519;-46
2023/05/27 09:38:30;;;;;;;63.65;50.13;;;17.70;69.70;;;;;;4905252;28;90741;-47
2023/05/27 09:40:57;;;;;;;64.03;49.90;;;17.70;69.80;;;;;;4904366;28;89720;-49
2023/05/27 09:43:25;;;;;;;65.05;50.80;;;17.80;69.70;;;;;;4905622;28;89941;-44
2023/05/27 09:45:58;;;;;;;63.83;50.25;;;17.80;69.40;;;;;;4906483;28;90155;-45
2023/05/27 09:48:25;;;;;;;63.33;50.22;;;17.80;69.30;;;;;;4905787;28;89675;-50
2023/05/27 09:50:52;;;;;;;64.72;50.55;;;17.80;69.30;;;;;;4902989;28;90678;-48
2023/05/27 09:53:22;;;;;;;64.82;50.58;;;17.90;69.30;;;;;;4906103;28;89915;-45
2023/05/27 09:55:48;;;;;;;62.60;50.08;;;17.90;69.10;;;;;;4905035;28;92082;-47
2023/05/27 09:58:15;;;;;;;64.05;50.33;;;17.90;69.10;;;;;;4906362;28;91214;-46
2023/05/27 10:00:44;;;;;;;62.80;50.00;;;18.00;68.80;;;;;;4903627;28;89961;-47
2023/05/27 10:03:11;;;;;;;63.25;50.33;;;18.00;68.90;;;;;;4907478;28;89595;-47
2023/05/27 10:05:37;;;;;;;63.95;50.47;;;18.10;69.50;;;;;;4906745;28;90157;-45
2023/05/27 10:08:03;;;;;;;64.57;50.92;;;18.10;68.60;;;;;;4902494;28;90456;-47
2023/05/27 10:10:29;;;;;;;63.17;50.15;;;18.10;68.50;;;;;;4901656;28;90496;-47
2023/05/27 10:12:57;;;;;;;64.15;50.55;;;18.20;68.20;;;;;;4907967;28;89115;-46
2023/05/27 10:15:27;;;;;;;63.67;50.40;;;18.20;68.50;;;;;;4908422;28;90980;-48
2023/05/27 10:17:58;;;;;;;63.47;50.23;;;18.30;68.20;;;;;;4916401;28;90048;-45
2023/05/27 10:20:34;;;;;;;64.75;50.47;;;18.30;67.90;;;;;;4906696;28;91724;-45
2023/05/27 10:23:21;;;;;;;65.05;50.30;;;18.30;68.00;;;;;;4906023;28;90447;-46
2023/05/27 10:25:49;;;;;;;63.78;50.35;;;18.40;67.90;;;;;;4902628;28;91543;-53
2023/05/27 10:28:44;;;;;;;63.90;50.33;;;18.40;67.90;;;;;;4903199;28;90187;-58
2023/05/27 10:31:13;;;;;;;63.90;50.20;;;18.50;67.90;;;;;;4889510;28;89911;-57
2023/05/27 10:33:50;;;;;;;63.95;50.33;;;18.50;67.60;;;;;;4908764;28;89870;-51
2023/05/27 10:36:21;;;;;;;63.70;50.55;;;18.60;68.00;;;;;;4905874;28;90239;-55
2023/05/27 10:39:11;;;;;;;64.38;50.58;;;18.60;68.00;;;;;;4905834;28;89797;-56
2023/05/27 10:41:43;;;;;;;64.82;50.47;;;18.60;67.90;;;;;;4904728;28;89784;-59
2023/05/27 10:44:10;;;;;;;63.80;50.22;;;18.70;68.10;;;;;;4903788;28;89669;-51
2023/05/27 10:46:43;;;;;;;65.13;50.65;;;18.70;67.90;;;;;;4903291;28;91783;-54
2023/05/27 10:49:25;;;;;;;63.90;50.28;;;18.70;67.70;;;;;;4911607;28;92001;-56
2023/05/27 10:51:51;;;;;;;64.70;50.55;;;18.80;67.80;;;;;;4908887;28;90245;-55
2023/05/27 10:54:17;;;;;;;63.65;50.58;;;18.80;67.50;;;;;;4921532;28;89999;-56
2023/05/27 10:56:50;;;;;;;64.93;50.45;;;18.80;67.20;;;;;;4903020;28;90100;-58
2023/05/27 10:59:23;;;;;;;64.80;50.65;;;18.90;67.10;;;;;;4905689;28;90621;-58
2023/05/27 11:01:53;;;;;;;63.88;50.28;;;18.90;66.90;;;;;;4906909;28;89353;-59
2023/05/27 11:04:19;;;;;;;64.75;50.13;;;19.00;67.50;;;;;;4904910;28;89489;-57
2023/05/27 11:06:59;;;;;;;64.43;50.60;;;19.00;67.30;;;;;;4905968;28;90304;-58
2023/05/27 11:09:25;;;;;;;64.32;50.40;;;19.00;67.10;;;;;;4901343;28;90825;-57
2023/05/27 11:11:51;;;;;;;64.05;50.58;;;19.10;66.90;;;;;;4900868;28;91688;-57
2023/05/27 11:14:19;;;;;;;64.30;50.53;;;19.10;67.40;;;;;;4903480;28;89511;-59
2023/05/27 11:16:51;;;;;;;64.95;50.75;;;19.10;65.10;;;;;;4899550;28;89477;-58
2023/05/27 11:19:21;;;;;;;64.85;50.83;;;19.10;65.20;;;;;;4905419;28;90069;-53
2023/05/27 11:21:48;;;;;;;64.43;50.95;;;19.20;65.90;;;;;;4903083;28;91322;-56
2023/05/27 11:24:18;;;;;;;65.80;50.83;;;19.20;66.30;;;;;;4903598;28;90434;-57
2023/05/27 11:26:48;;;;;;;63.88;50.60;;;19.20;65.30;;;;;;4905552;28;90093;-57
2023/05/27 11:29:14;;;;;;;64.03;50.63;;;19.20;64.70;;;;;;4892409;28;90056;-55
2023/05/27 11:31:41;;;;;;;64.10;50.60;;;19.30;64.70;;;;;;4894352;28;91700;-54
2023/05/27 11:34:18;;;;;;;64.85;50.83;;;19.30;65.20;;;;;;4909020;28;90391;-54
2023/05/27 11:36:45;;;;;;;64.90;50.72;;;19.40;65.40;;;;;;4906137;28;91099;-58
2023/05/27 11:39:16;;;;;;;64.93;50.72;;;19.40;66.20;;;;;;4904768;28;90217;-54
2023/05/27 11:41:50;;;;;;;64.03;50.35;;;19.40;66.60;;;;;;4905038;28;90060;-58
2023/05/27 11:44:17;;;;;;;65.18;50.80;;;19.40;64.50;;;;;;4904437;28;91337;-55
2023/05/27 11:46:44;;;;;;;64.78;50.53;;;19.50;65.80;;;;;;4900557;28;90102;-59
2023/05/27 11:49:15;;;;;;;65.65;51.05;;;19.50;63.80;;;;;;4906261;28;90125;-60
2023/05/27 11:51:45;;;;;;;64.50;50.65;;;19.60;65.50;;;;;;4903813;28;89296;-55
2023/05/27 11:54:25;;;;;;;64.82;50.72;;;19.60;63.70;;;;;;4906563;28;90945;-53
2023/05/27 11:56:52;;;;;;;64.18;50.42;;;19.60;63.10;;;;;;4904687;28;89598;-59
2023/05/27 11:59:18;;;;;;;64.57;50.47;;;19.60;63.70;;;;;;4902509;28;90054;-55
2023/05/27 12:01:44;;;;;;;64.72;50.65;;;19.70;63.10;;;;;;4901113;28;90712;-55
2023/05/27 12:04:10;;;;;;;64.18;50.42;;;19.70;63.30;;;;;;4903779;28;89794;-56
2023/05/27 12:06:37;;;;;;;65.70;51.00;;;19.70;63.20;;;;;;4903143;28;89993;-56
2023/05/27 12:09:05;;;;;;;66.35;50.78;;;19.80;63.70;;;;;;4900564;28;90220;-59
2023/05/27 12:11:31;;;;;;;64.25;50.53;;;19.80;64.40;;;;;;4903234;28;89567;-60
2023/05/27 12:13:57;;;;;;;65.35;50.80;;;19.80;63.30;;;;;;4902763;28;90555;-56
2023/05/27 12:16:23;;;;;;;64.47;50.50;;;19.90;64.20;;;;;;4904143;28;89878;-59
2023/05/27 12:18:49;;;;;;;66.30;50.80;;;19.90;63.70;;;;;;4903413;28;90454;-59
2023/05/27 12:21:19;;;;;;;65.47;50.50;;;19.90;62.60;;;;;;4903915;28;90358;-58
2023/05/27 12:23:45;;;;;;;65.20;50.90;;;19.90;62.10;;;;;;4906232;28;89569;-59
2023/05/27 12:26:13;;;;;;;65.45;51.05;;;20.00;64.10;;;;;;4900847;28;90754;-55
2023/05/27 12:28:39;;;;;;;65.03;50.83;;;20.00;64.00;;;;;;4902625;28;91002;-56
2023/05/27 12:31:05;;;;;;;65.20;50.85;;;20.00;63.50;;;;;;4902170;28;89959;-56